Time,TemperatureF,DewpointF,PressureIn,WindDirection,WindDirectionDegrees,WindSpeedMPH,WindSpeedGustMPH,Humidity,HourlyPrecipIn,Conditions,Clouds,dailyrainin,SoftwareType,DateUTC
2013-02-25 00:13:00,34.2,32.4,29.87,ENE,67,0.0,-999.0,93,-99.99,,,0.00,Acu-Link.com,2013-02-25 05:13:00,
2013-02-25 00:28:00,33.6,31.8,29.87,NE,45,0.0,-999.0,93,-99.99,,,0.00,Acu-Link.com,2013-02-25 05:28:00,
2013-02-25 00:43:00,33.3,31.5,29.87,NNW,337,0.0,-999.0,93,-99.99,,,0.00,Acu-Link.com,2013-02-25 05:43:00,
2013-02-25 00:58:00,32.9,31.1,29.88,North,0,0.0,-999.0,93,-99.99,,,0.00,Acu-Link.com,2013-02-25 05:58:00,
2013-02-25 01:13:00,32.9,31.4,29.88,North,0,0.0,-999.0,94,-99.99,,,0.00,Acu-Link.com,2013-02-25 06:13:00,
2013-02-25 01:28:00,32.5,31.0,29.89,NNE,22,0.0,-999.0,94,-99.99,,,0.00,Acu-Link.com,2013-02-25 06:28:00,
2013-02-25 01:43:00,32.5,31.2,29.89,NNE,22,0.0,-999.0,95,-99.99,,,0.00,Acu-Link.com,2013-02-25 06:43:00,
2013-02-25 01:58:00,32.4,31.1,29.88,SE,135,0.0,-999.0,95,-99.99,,,0.00,Acu-Link.com,2013-02-25 06:58:00,
2013-02-25 02:14:00,32.4,31.1,29.88,East,90,0.0,-999.0,95,-99.99,,,0.00,Acu-Link.com,2013-02-25 07:14:00,
2013-02-25 02:29:00,32.4,31.1,29.88,East,90,0.0,-999.0,95,-99.99,,,0.00,Acu-Link.com,2013-02-25 07:29:00,
2013-02-25 02:44:00,32.5,31.5,29.88,ESE,112,0.0,-999.0,96,-99.99,,,0.00,Acu-Link.com,2013-02-25 07:44:00,
2013-02-25 02:59:00,32.7,31.7,29.88,NNE,22,0.0,-999.0,96,-99.99,,,0.00,Acu-Link.com,2013-02-25 07:59:00,
2013-02-25 03:14:00,32.9,32.1,29.88,East,90,0.0,-999.0,97,-99.99,,,0.00,Acu-Link.com,2013-02-25 08:14:00,
2013-02-25 03:29:00,33.1,32.3,29.89,WNW,292,0.0,-999.0,97,-99.99,,,0.00,Acu-Link.com,2013-02-25 08:29:00,
2013-02-25 03:45:00,33.4,32.9,29.89,NNW,337,0.0,-999.0,98,-99.99,,,0.00,Acu-Link.com,2013-02-25 08:45:00,
2013-02-25 04:00:00,34.0,33.5,29.90,West,270,0.0,-999.0,98,-99.99,,,0.00,Acu-Link.com,2013-02-25 09:00:00,
2013-02-25 04:17:00,34.0,33.5,29.89,ESE,112,0.0,-999.0,98,-99.99,,,0.00,Acu-Link.com,2013-02-25 09:17:00,
2013-02-25 04:33:00,34.5,34.0,29.90,NW,315,0.0,-999.0,98,-99.99,,,0.00,Acu-Link.com,2013-02-25 09:33:00,
2013-02-25 04:48:00,35.2,34.2,29.90,WSW,247,0.0,-999.0,96,-99.99,,,0.00,Acu-Link.com,2013-02-25 09:48:00,
2013-02-25 05:03:00,35.8,34.2,29.90,West,270,0.0,-999.0,94,-99.99,,,0.00,Acu-Link.com,2013-02-25 10:03:00,
2013-02-25 05:18:00,36.0,34.2,29.91,WNW,292,0.0,-999.0,93,-99.99,,,0.00,Acu-Link.com,2013-02-25 10:18:00,
2013-02-25 05:33:00,36.9,33.7,29.91,ENE,67,2.2,-999.0,88,-99.99,,,0.00,Acu-Link.com,2013-02-25 10:33:00,
2013-02-25 05:49:00,39.0,33.7,29.92,ESE,112,0.0,-999.0,81,-99.99,,,0.00,Acu-Link.com,2013-02-25 10:49:00,
2013-02-25 06:04:00,41.0,32.7,29.93,West,270,3.2,-999.0,72,-99.99,,,0.00,Acu-Link.com,2013-02-25 11:04:00,
2013-02-25 06:19:00,42.3,31.4,29.95,ESE,112,5.3,-999.0,65,-99.99,,,0.00,Acu-Link.com,2013-02-25 11:19:00,
2013-02-25 06:35:00,41.9,30.2,29.94,NE,45,6.8,-999.0,63,-99.99,,,0.00,Acu-Link.com,2013-02-25 11:35:00,
2013-02-25 06:50:00,42.1,30.4,29.95,NE,45,3.2,-999.0,63,-99.99,,,0.00,Acu-Link.com,2013-02-25 11:50:00,
2013-02-25 07:05:00,42.3,30.2,29.95,NE,45,4.2,-999.0,62,-99.99,,,0.00,Acu-Link.com,2013-02-25 12:05:00,
2013-02-25 07:20:00,41.9,29.8,29.96,ENE,67,2.2,-999.0,62,-99.99,,,0.00,Acu-Link.com,2013-02-25 12:20:00,
2013-02-25 07:35:00,41.5,29.9,29.97,East,90,1.1,-999.0,63,-99.99,,,0.00,Acu-Link.com,2013-02-25 12:35:00,
2013-02-25 08:21:00,42.6,30.1,30.01,East,90,5.8,-999.0,61,-99.99,,,0.00,Acu-Link.com,2013-02-25 13:21:00,
2013-02-25 08:36:00,43.0,29.7,30.02,NE,45,2.7,-999.0,59,-99.99,,,0.00,Acu-Link.com,2013-02-25 13:36:00,
2013-02-25 08:51:00,43.2,29.9,30.03,NE,45,6.3,-999.0,59,-99.99,,,0.00,Acu-Link.com,2013-02-25 13:51:00,
2013-02-25 09:07:00,43.3,29.9,30.03,NE,45,12.5,-999.0,59,-99.99,,,0.00,Acu-Link.com,2013-02-25 14:07:00,
2013-02-25 09:22:00,43.3,29.5,30.03,ENE,67,3.7,-999.0,58,-99.99,,,0.00,Acu-Link.com,2013-02-25 14:22:00,
2013-02-25 09:37:00,43.9,30.1,30.04,ENE,67,5.8,-999.0,58,-99.99,,,0.00,Acu-Link.com,2013-02-25 14:37:00,
2013-02-25 09:52:00,44.1,30.3,30.03,East,90,10.9,-999.0,58,-99.99,,,0.00,Acu-Link.com,2013-02-25 14:52:00,
2013-02-25 10:07:00,44.1,30.3,30.03,NE,45,1.1,-999.0,58,-99.99,,,0.00,Acu-Link.com,2013-02-25 15:07:00,
2013-02-25 10:22:00,44.4,31.0,30.02,WNW,292,4.2,-999.0,59,-99.99,,,0.00,Acu-Link.com,2013-02-25 15:22:00,
2013-02-25 10:37:00,44.4,30.6,30.03,East,90,4.7,-999.0,58,-99.99,,,0.00,Acu-Link.com,2013-02-25 15:37:00,
2013-02-25 10:53:00,44.8,30.9,30.02,NE,45,6.8,-999.0,58,-99.99,,,0.00,Acu-Link.com,2013-02-25 15:53:00,
2013-02-25 11:08:00,44.4,30.6,30.01,ESE,112,5.3,-999.0,58,-99.99,,,0.00,Acu-Link.com,2013-02-25 16:08:00,
2013-02-25 11:23:00,45.1,30.8,30.01,ESE,112,8.3,-999.0,57,-99.99,,,0.00,Acu-Link.com,2013-02-25 16:23:00,
2013-02-25 11:38:00,45.7,31.4,30.01,WSW,247,3.7,-999.0,57,-99.99,,,0.00,Acu-Link.com,2013-02-25 16:38:00,
2013-02-25 11:53:00,45.9,31.5,30.00,ENE,67,4.7,-999.0,57,-99.99,,,0.00,Acu-Link.com,2013-02-25 16:53:00,
2013-02-25 12:08:00,46.2,31.4,29.99,WNW,292,4.7,-999.0,56,-99.99,,,0.00,Acu-Link.com,2013-02-25 17:08:00,
2013-02-25 12:23:00,47.3,32.4,29.99,NE,45,9.9,-999.0,56,-99.99,,,0.00,Acu-Link.com,2013-02-25 17:23:00,
2013-02-25 12:38:00,47.7,32.8,29.99,ESE,112,4.7,-999.0,56,-99.99,,,0.00,Acu-Link.com,2013-02-25 17:38:00,
2013-02-25 12:53:00,46.8,31.5,29.97,SW,225,2.7,-999.0,55,-99.99,,,0.00,Acu-Link.com,2013-02-25 17:53:00,
2013-02-25 13:09:00,46.6,31.3,29.97,ESE,112,8.3,-999.0,55,-99.99,,,0.00,Acu-Link.com,2013-02-25 18:09:00,
2013-02-25 13:24:00,47.3,31.5,29.97,ENE,67,5.3,-999.0,54,-99.99,,,0.00,Acu-Link.com,2013-02-25 18:24:00,
2013-02-25 13:39:00,48.0,32.2,29.97,NE,45,3.7,-999.0,54,-99.99,,,0.00,Acu-Link.com,2013-02-25 18:39:00,
2013-02-25 13:55:00,48.7,32.8,29.96,NE,45,2.2,-999.0,54,-99.99,,,0.00,Acu-Link.com,2013-02-25 18:55:00,
2013-02-25 14:10:00,48.9,32.5,29.95,ESE,112,7.3,-999.0,53,-99.99,,,0.00,Acu-Link.com,2013-02-25 19:10:00,
2013-02-25 14:25:00,48.2,32.3,29.95,NNW,337,2.7,-999.0,54,-99.99,,,0.00,Acu-Link.com,2013-02-25 19:25:00,
2013-02-25 14:40:00,48.4,32.5,29.94,NE,45,8.3,-999.0,54,-99.99,,,0.00,Acu-Link.com,2013-02-25 19:40:00,
2013-02-25 14:55:00,48.7,32.3,29.94,North,0,6.8,-999.0,53,-99.99,,,0.00,Acu-Link.com,2013-02-25 19:55:00,
2013-02-25 15:10:00,48.7,32.8,29.94,East,90,4.7,-999.0,54,-99.99,,,0.00,Acu-Link.com,2013-02-25 20:10:00,
2013-02-25 15:25:00,49.1,32.7,29.94,East,90,6.3,-999.0,53,-99.99,,,0.00,Acu-Link.com,2013-02-25 20:25:00,
2013-02-25 15:40:00,50.2,34.2,29.93,ESE,112,4.7,-999.0,54,-99.99,,,0.00,Acu-Link.com,2013-02-25 20:40:00,
2013-02-25 15:55:00,49.5,33.1,29.93,ESE,112,6.3,-999.0,53,-99.99,,,0.00,Acu-Link.com,2013-02-25 20:55:00,
2013-02-25 16:11:00,49.1,32.7,29.92,NE,45,3.7,-999.0,53,-99.99,,,0.00,Acu-Link.com,2013-02-25 21:11:00,
2013-02-25 16:26:00,49.8,33.8,29.92,ESE,112,4.7,-999.0,54,-99.99,,,0.00,Acu-Link.com,2013-02-25 21:26:00,
2013-02-25 16:41:00,48.9,33.0,29.92,SSW,202,6.8,-999.0,54,-99.99,,,0.00,Acu-Link.com,2013-02-25 21:41:00,
2013-02-25 16:56:00,48.6,33.2,29.92,NE,45,4.2,-999.0,55,-99.99,,,0.00,Acu-Link.com,2013-02-25 21:56:00,
2013-02-25 17:11:00,47.8,32.9,29.92,NNE,22,4.2,-999.0,56,-99.99,,,0.00,Acu-Link.com,2013-02-25 22:11:00,
2013-02-25 17:26:00,47.3,32.8,29.92,ESE,112,5.3,-999.0,57,-99.99,,,0.00,Acu-Link.com,2013-02-25 22:26:00,
2013-02-25 17:42:00,46.6,32.2,29.91,ESE,112,5.8,-999.0,57,-99.99,,,0.00,Acu-Link.com,2013-02-25 22:42:00,
2013-02-25 17:57:00,45.9,32.0,29.91,NE,45,4.2,-999.0,58,-99.99,,,0.00,Acu-Link.com,2013-02-25 22:57:00,
2013-02-25 18:12:00,45.5,32.0,29.91,NE,45,5.3,-999.0,59,-99.99,,,0.00,Acu-Link.com,2013-02-25 23:12:00,
2013-02-25 18:27:00,45.0,32.0,29.92,NNW,337,3.7,-999.0,60,-99.99,,,0.00,Acu-Link.com,2013-02-25 23:27:00,
2013-02-25 18:42:00,44.8,31.8,29.91,ESE,112,5.3,-999.0,60,-99.99,,,0.00,Acu-Link.com,2013-02-25 23:42:00,
2013-02-25 18:57:00,44.4,31.8,29.92,SW,225,4.7,-999.0,61,-99.99,,,0.00,Acu-Link.com,2013-02-25 23:57:00,
2013-02-25 19:12:00,44.1,31.9,29.92,ENE,67,5.8,-999.0,62,-99.99,,,0.00,Acu-Link.com,2013-02-26 00:12:00,
2013-02-25 19:27:00,43.9,31.7,29.92,ESE,112,6.8,-999.0,62,-99.99,,,0.00,Acu-Link.com,2013-02-26 00:27:00,
2013-02-25 19:42:00,43.7,31.9,29.92,ESE,112,5.8,-999.0,63,-99.99,,,0.00,Acu-Link.com,2013-02-26 00:42:00,
2013-02-25 19:58:00,43.5,31.8,29.92,NNE,22,1.7,-999.0,63,-99.99,,,0.00,Acu-Link.com,2013-02-26 00:58:00,
2013-02-25 20:13:00,43.3,31.6,29.93,ENE,67,7.8,-999.0,63,-99.99,,,0.00,Acu-Link.com,2013-02-26 01:13:00,
2013-02-25 20:28:00,43.2,31.9,29.92,ENE,67,2.2,-999.0,64,-99.99,,,0.00,Acu-Link.com,2013-02-26 01:28:00,
2013-02-25 20:43:00,42.8,31.5,29.92,ENE,67,8.3,-999.0,64,-99.99,,,0.00,Acu-Link.com,2013-02-26 01:43:00,
2013-02-25 20:58:00,42.8,31.9,29.93,NNE,22,3.7,-999.0,65,-99.99,,,0.00,Acu-Link.com,2013-02-26 01:58:00,
2013-02-25 21:13:00,41.4,32.7,29.93,West,270,5.3,-999.0,71,-99.99,,,0.00,Acu-Link.com,2013-02-26 02:13:00,
2013-02-25 21:29:00,39.7,34.0,29.93,ESE,112,3.2,-999.0,80,-99.99,,,0.00,Acu-Link.com,2013-02-26 02:29:00,
2013-02-25 21:44:00,39.2,34.5,29.92,NE,45,5.3,-999.0,83,-99.99,,,0.00,Acu-Link.com,2013-02-26 02:44:00,
2013-02-25 21:59:00,38.7,34.9,29.92,NE,45,4.2,-999.0,86,-99.99,,,0.00,Acu-Link.com,2013-02-26 02:59:00,
2013-02-25 22:14:00,37.9,34.7,29.93,SSW,202,2.7,-999.0,88,-99.99,,,0.00,Acu-Link.com,2013-02-26 03:14:00,
2013-02-25 22:29:00,37.6,34.7,29.92,ESE,112,5.8,-999.0,89,-99.99,,,0.00,Acu-Link.com,2013-02-26 03:29:00,
2013-02-25 22:44:00,37.2,34.8,29.91,ESE,112,2.7,-999.0,91,-99.99,,,0.01,Acu-Link.com,2013-02-26 03:44:00,
2013-02-25 22:59:00,37.0,34.9,29.92,NE,45,5.3,-999.0,92,-99.99,,,0.01,Acu-Link.com,2013-02-26 03:59:00,
2013-02-25 23:15:00,36.7,34.6,29.91,ENE,67,8.3,-999.0,92,-99.99,,,0.01,Acu-Link.com,2013-02-26 04:15:00,
2013-02-25 23:30:00,36.3,34.2,29.91,East,90,7.3,-999.0,92,-99.99,,,0.01,Acu-Link.com,2013-02-26 04:30:00,
2013-02-25 23:45:00,36.1,34.0,29.91,ENE,67,4.2,-999.0,92,-99.99,,,0.01,Acu-Link.com,2013-02-26 04:45:00,